createdAt,value
2022-09-28T00:00:49.500Z,13.05
2022-09-28T00:01:51.738Z,13.12
2022-09-28T00:02:57.021Z,13.24
2022-09-28T00:03:59.174Z,13.32
2022-09-28T00:05:01.513Z,13.43
2022-09-28T00:06:09.624Z,13.18
2022-09-28T00:07:11.500Z,13.13
2022-09-28T00:08:13.349Z,13.08
2022-09-28T00:09:16.709Z,12.90
2022-09-28T00:10:20.218Z,12.93
2022-09-28T00:11:24.982Z,12.97
2022-09-28T00:12:28.055Z,12.90
2022-09-28T00:13:30.003Z,12.97
2022-09-28T00:14:31.862Z,12.95
2022-09-28T00:15:33.732Z,12.94
2022-09-28T00:16:39.105Z,12.99
2022-09-28T00:17:41.162Z,12.92
2022-09-28T00:18:43.849Z,13.03
2022-09-28T00:19:45.928Z,12.98
2022-09-28T00:20:47.812Z,12.97
2022-09-28T00:21:51.099Z,12.82
2022-09-28T00:22:52.910Z,12.85
2022-09-28T00:23:58.138Z,12.83
2022-09-28T00:24:59.862Z,12.73
2022-09-28T00:26:04.986Z,12.79
2022-09-28T00:27:07.006Z,12.90
2022-09-28T00:28:09.116Z,12.96
2022-09-28T00:29:14.607Z,13.01
2022-09-28T00:30:16.952Z,13.13
2022-09-28T00:31:19.021Z,13.21
2022-09-28T00:32:21.346Z,13.17
2022-09-28T00:33:23.708Z,13.21
2022-09-28T00:34:26.713Z,13.31
2022-09-28T00:35:28.485Z,13.36
2022-09-28T00:36:31.910Z,13.42
2022-09-28T00:37:33.859Z,13.45
2022-09-28T00:38:35.670Z,13.43
2022-09-28T00:39:38.726Z,13.30
2022-09-28T00:40:41.404Z,13.22
2022-09-28T00:41:45.073Z,13.30
2022-09-28T00:42:46.907Z,13.41
2022-09-28T00:43:48.815Z,13.40
2022-09-28T00:44:55.518Z,13.36
2022-09-28T00:46:04.163Z,13.32
2022-09-28T00:47:21.991Z,13.19
2022-09-28T00:48:28.526Z,13.24
2022-09-28T00:49:43.318Z,13.24
2022-09-28T00:50:45.382Z,13.17
2022-09-28T00:51:48.379Z,13.04
2022-09-28T00:53:12.450Z,12.86
2022-09-28T00:54:16.094Z,12.86
2022-09-28T00:55:21.604Z,12.73
2022-09-28T00:56:27.388Z,12.71
2022-09-28T00:57:31.154Z,12.73
2022-09-28T00:58:36.706Z,12.79
2022-09-28T00:59:40.683Z,12.83
2022-09-28T01:00:42.798Z,12.96
2022-09-28T01:01:45.396Z,12.92
2022-09-28T01:02:47.861Z,12.80
2022-09-28T01:03:49.783Z,12.74
2022-09-28T01:04:53.723Z,12.76
2022-09-28T01:05:58.384Z,12.64
2022-09-28T01:07:00.652Z,12.65
2022-09-28T01:08:03.953Z,12.62
2022-09-28T01:09:09.597Z,12.67
2022-09-28T01:10:12.542Z,12.70
2022-09-28T01:11:14.328Z,12.81
2022-09-28T01:12:17.632Z,12.91
2022-09-28T01:13:23.847Z,13.03
2022-09-28T01:14:25.910Z,13.05
2022-09-28T01:15:29.100Z,13.05
2022-09-28T01:16:47.065Z,13.03
2022-09-28T01:18:27.990Z,12.86
2022-09-28T01:19:49.090Z,12.85
2022-09-28T01:20:57.753Z,13.00
2022-09-28T01:22:26.509Z,13.19
2022-09-28T01:23:44.465Z,13.17
2022-09-28T01:24:48.882Z,13.22
2022-09-28T01:25:57.561Z,13.25
2022-09-28T01:27:15.224Z,13.13
2022-09-28T01:28:20.555Z,13.12
2022-09-28T01:29:38.232Z,13.25
2022-09-28T01:30:55.936Z,13.12
2022-09-28T01:32:01.545Z,13.16
2022-09-28T01:33:07.290Z,13.15
2022-09-28T01:34:18.803Z,13.11
2022-09-28T01:35:34.154Z,13.14
2022-09-28T01:36:39.843Z,13.22
2022-09-28T01:37:51.275Z,13.25
2022-09-28T01:38:56.808Z,13.16
2022-09-28T01:40:01.663Z,13.03
2022-09-28T01:41:06.731Z,13.05
2022-09-28T01:42:12.282Z,13.13
2022-09-28T01:43:21.089Z,13.00
2022-09-28T01:44:26.779Z,12.94
2022-09-28T01:45:32.799Z,12.89
2022-09-28T01:46:40.879Z,12.81
2022-09-28T01:47:46.089Z,12.73
2022-09-28T01:50:11.271Z,12.98
2022-09-28T01:51:27.260Z,12.76
2022-09-28T01:52:32.752Z,12.74
2022-09-28T01:53:40.950Z,12.67
2022-09-28T01:56:01.976Z,12.73
2022-09-28T01:57:14.376Z,12.63
2022-09-28T01:58:23.671Z,12.59
2022-09-28T01:59:32.211Z,12.55
2022-09-28T02:00:37.516Z,12.63
2022-09-28T02:01:55.628Z,12.54
2022-09-28T02:03:19.799Z,12.56
2022-09-28T02:04:30.616Z,12.65
2022-09-28T02:05:34.721Z,12.71
2022-09-28T02:06:40.386Z,12.52
2022-09-28T02:07:58.028Z,12.53
2022-09-28T02:09:03.696Z,12.54
2022-09-28T02:10:14.245Z,12.46
2022-09-28T02:11:18.693Z,12.55
2022-09-28T02:12:24.620Z,12.65
2022-09-28T02:13:32.948Z,12.69
2022-09-28T02:14:39.282Z,12.67
2022-09-28T02:16:00.290Z,12.65
2022-09-28T02:17:03.373Z,12.68
2022-09-28T02:18:06.648Z,12.77
2022-09-28T02:19:18.312Z,12.84
2022-09-28T02:20:23.092Z,12.93
2022-09-28T02:21:47.333Z,13.07
2022-09-28T02:22:52.313Z,13.18
2022-09-28T02:24:04.337Z,13.10
2022-09-28T02:25:42.106Z,13.09
2022-09-28T02:26:48.101Z,13.13
2022-09-28T02:27:59.424Z,12.78
2022-09-28T02:29:02.011Z,12.85
2022-09-28T02:30:05.704Z,12.91
2022-09-28T02:31:07.716Z,12.81
2022-09-28T02:32:10.606Z,12.63
2022-09-28T02:33:16.208Z,12.59
2022-09-28T02:34:18.313Z,12.54
2022-09-28T02:35:21.553Z,12.60
2022-09-28T02:36:27.703Z,12.70
2022-09-28T02:37:31.049Z,12.63
2022-09-28T02:38:34.387Z,12.62
2022-09-28T02:39:37.277Z,12.74
2022-09-28T02:40:40.214Z,12.84
2022-09-28T02:41:49.582Z,12.77
2022-09-28T02:43:13.467Z,12.79
2022-09-28T02:44:28.145Z,12.79
2022-09-28T02:45:43.076Z,12.92
2022-09-28T02:46:51.817Z,13.05
2022-09-28T02:48:08.119Z,12.93
2022-09-28T02:49:23.445Z,13.05
2022-09-28T02:50:47.535Z,13.20
2022-09-28T02:51:59.294Z,13.26
2022-09-28T02:53:07.908Z,13.04
2022-09-28T02:54:40.398Z,12.98
2022-09-28T02:56:07.211Z,12.97
2022-09-28T02:57:25.030Z,13.05
2022-09-28T02:58:42.906Z,13.13
2022-09-28T03:00:03.974Z,13.20
2022-09-28T03:01:12.637Z,13.24
2022-09-28T03:02:20.948Z,13.15
2022-09-28T03:03:35.645Z,13.09
2022-09-28T03:05:05.472Z,13.01
2022-09-28T03:06:26.668Z,12.94
2022-09-28T03:07:46.616Z,12.88
2022-09-28T03:09:00.865Z,12.90
2022-09-28T03:10:29.782Z,12.98
2022-09-28T03:11:35.288Z,12.98
2022-09-28T03:12:38.923Z,13.13
2022-09-28T03:13:41.988Z,13.26
2022-09-28T03:14:45.328Z,13.37
2022-09-28T03:15:48.966Z,13.48
2022-09-28T03:16:52.548Z,13.45
2022-09-28T03:17:56.235Z,13.48
2022-09-28T03:18:58.389Z,13.57
2022-09-28T03:20:00.978Z,13.65
2022-09-28T03:21:04.511Z,13.63
2022-09-28T03:22:07.422Z,13.62
2022-09-28T03:23:24.361Z,13.40
2022-09-28T03:24:14.996Z,13.39
2022-09-28T03:25:17.701Z,13.26
2022-09-28T03:26:20.748Z,13.25
2022-09-28T03:27:22.501Z,13.18
2022-09-28T03:28:24.314Z,13.16
2022-09-28T03:29:26.119Z,13.27
2022-09-28T03:30:30.002Z,13.38
2022-09-28T03:31:33.029Z,13.44
2022-09-28T03:32:36.131Z,13.51
2022-09-28T03:33:39.194Z,13.58
2022-09-28T03:34:40.805Z,13.62
2022-09-28T03:35:47.915Z,13.57
2022-09-28T03:36:51.254Z,13.60
2022-09-28T03:37:56.835Z,13.38
2022-09-28T03:38:59.638Z,13.46
2022-09-28T03:40:03.189Z,13.38
2022-09-28T03:41:05.705Z,13.31
2022-09-28T03:42:09.571Z,13.35
2022-09-28T03:43:13.457Z,13.39
2022-09-28T03:44:16.055Z,13.38
2022-09-28T03:45:18.081Z,13.44
2022-09-28T03:46:20.575Z,13.35
2022-09-28T03:47:24.319Z,13.24
2022-09-28T03:48:32.343Z,13.34
2022-09-28T03:49:32.630Z,13.14
2022-09-28T03:50:34.577Z,13.09
2022-09-28T03:51:36.655Z,13.10
2022-09-28T03:52:38.450Z,13.16
2022-09-28T03:53:40.825Z,13.26
2022-09-28T03:54:46.938Z,13.28
2022-09-28T03:55:48.298Z,13.33
2022-09-28T03:56:50.238Z,13.33
2022-09-28T03:57:55.145Z,13.38
2022-09-28T03:58:57.072Z,13.37
2022-09-28T03:59:58.992Z,13.38
2022-09-28T04:01:05.973Z,13.47
2022-09-28T04:02:08.137Z,13.53
2022-09-28T04:03:10.307Z,13.65
2022-09-28T04:04:12.828Z,13.76
2022-09-28T04:05:14.835Z,13.80
2022-09-28T04:06:17.437Z,13.67
2022-09-28T04:07:19.263Z,13.56
2022-09-28T04:08:21.560Z,13.54
2022-09-28T04:09:24.156Z,13.56
2022-09-28T04:10:26.118Z,13.55
2022-09-28T04:11:42.866Z,13.53
2022-09-28T04:12:33.723Z,13.49
2022-09-28T04:13:35.537Z,13.41
2022-09-28T04:14:39.251Z,13.50
2022-09-28T04:15:41.800Z,13.43
2022-09-28T04:16:43.859Z,13.43
2022-09-28T04:17:47.687Z,13.48
2022-09-28T04:18:52.046Z,13.40
2022-09-28T04:20:12.485Z,13.36
2022-09-28T04:21:22.572Z,13.36
2022-09-28T04:22:26.311Z,13.47
2022-09-28T04:23:28.696Z,13.56
2022-09-28T04:24:30.726Z,13.66
2022-09-28T04:25:32.501Z,13.77
2022-09-28T04:26:34.475Z,13.82
2022-09-28T04:27:36.331Z,13.91
2022-09-28T04:28:38.039Z,13.87
2022-09-28T04:29:40.445Z,13.96
2022-09-28T04:30:44.967Z,14.03
2022-09-28T04:31:52.732Z,14.11
2022-09-28T04:32:56.413Z,14.18
2022-09-28T04:33:58.397Z,14.20
2022-09-28T04:35:00.118Z,14.20
2022-09-28T04:36:01.880Z,14.30
2022-09-28T04:37:03.614Z,14.34
2022-09-28T04:38:05.494Z,14.35
2022-09-28T04:39:07.655Z,14.35
2022-09-28T04:40:10.514Z,14.44
2022-09-28T04:41:13.358Z,14.44
2022-09-28T04:42:15.325Z,14.47
2022-09-28T04:43:17.320Z,14.51
2022-09-28T04:44:19.272Z,14.53
2022-09-28T04:45:23.436Z,14.55
2022-09-28T04:46:27.158Z,14.52
2022-09-28T04:47:30.982Z,14.33
2022-09-28T04:48:51.069Z,14.27
2022-09-28T04:50:00.762Z,14.03
2022-09-28T04:51:07.637Z,13.88
2022-09-28T04:52:11.010Z,13.90
2022-09-28T04:53:13.498Z,13.95
2022-09-28T04:54:15.406Z,13.82
2022-09-28T04:55:17.182Z,13.78
2022-09-28T04:56:19.137Z,13.82
2022-09-28T04:57:20.860Z,13.89
2022-09-28T04:58:23.811Z,14.00
2022-09-28T04:59:26.230Z,14.11
2022-09-28T05:00:30.005Z,14.18
2022-09-28T05:01:36.534Z,14.26
2022-09-28T05:02:56.936Z,14.25
2022-09-28T05:04:03.671Z,14.26
2022-09-28T05:05:10.225Z,14.31
2022-09-28T05:06:30.750Z,14.20
2022-09-28T05:07:40.525Z,14.09
2022-09-28T05:08:42.647Z,14.09
2022-09-28T05:09:45.507Z,14.15
2022-09-28T05:10:47.500Z,14.14
2022-09-28T05:11:52.133Z,14.15
2022-09-28T05:12:55.922Z,14.10
2022-09-28T05:13:58.877Z,14.08
2022-09-28T05:15:01.137Z,14.11
2022-09-28T05:16:05.533Z,14.21
2022-09-28T05:17:09.956Z,14.29
2022-09-28T05:18:16.700Z,14.36
2022-09-28T05:19:23.196Z,14.40
2022-09-28T05:20:26.462Z,14.46
2022-09-28T05:21:28.463Z,14.42
2022-09-28T05:22:31.194Z,14.47
2022-09-28T05:23:34.604Z,14.50
2022-09-28T05:24:37.040Z,14.57
2022-09-28T05:25:39.446Z,14.60
2022-09-28T05:26:43.303Z,14.64
2022-09-28T05:27:45.743Z,14.65
2022-09-28T05:28:50.841Z,14.57
2022-09-28T05:29:56.373Z,14.61
2022-09-28T05:31:03.400Z,14.67
2022-09-28T05:32:07.582Z,14.68
2022-09-28T05:33:11.325Z,14.70
2022-09-28T05:34:15.175Z,14.74
2022-09-28T05:35:18.257Z,14.75
2022-09-28T05:36:21.877Z,14.75
2022-09-28T05:37:24.760Z,14.81
2022-09-28T05:38:27.483Z,14.88
2022-09-28T05:39:29.530Z,14.95
2022-09-28T05:40:32.094Z,15.01
2022-09-28T05:41:34.235Z,15.05
2022-09-28T05:42:36.464Z,15.09
2022-09-28T05:43:39.054Z,15.10
2022-09-28T05:44:40.945Z,15.16
2022-09-28T05:45:43.068Z,15.25
2022-09-28T05:46:45.258Z,15.32
2022-09-28T05:47:47.656Z,15.39
2022-09-28T05:48:51.536Z,15.42
2022-09-28T05:49:55.307Z,15.45
2022-09-28T05:50:57.368Z,15.45
2022-09-28T05:52:00.064Z,15.52
2022-09-28T05:53:09.685Z,15.60
2022-09-28T05:54:12.049Z,15.63
2022-09-28T05:55:16.030Z,15.67
2022-09-28T05:56:21.878Z,15.66
2022-09-28T05:57:25.306Z,15.66
2022-09-28T05:58:27.903Z,15.62
2022-09-28T05:59:30.811Z,15.63
2022-09-28T06:00:34.703Z,15.63
2022-09-28T06:01:37.554Z,15.63
2022-09-28T06:02:41.957Z,15.58
2022-09-28T06:03:45.817Z,15.63
2022-09-28T06:04:48.133Z,15.65
2022-09-28T06:05:50.973Z,15.69
2022-09-28T06:06:53.315Z,15.67
2022-09-28T06:07:57.899Z,15.68
2022-09-28T06:08:59.731Z,15.65
2022-09-28T06:10:04.941Z,15.64
2022-09-28T06:11:17.463Z,15.67
2022-09-28T06:12:19.627Z,15.69
2022-09-28T06:13:23.333Z,15.71
2022-09-28T06:14:26.206Z,15.72
2022-09-28T06:15:30.784Z,15.72
2022-09-28T06:16:37.362Z,15.71
2022-09-28T06:17:41.057Z,15.71
2022-09-28T06:19:01.196Z,15.66
2022-09-28T06:20:21.440Z,15.66
2022-09-28T06:21:25.375Z,15.64
2022-09-28T06:22:27.286Z,15.60
2022-09-28T06:23:36.933Z,15.54
2022-09-28T06:24:40.978Z,15.52
2022-09-28T06:25:43.155Z,15.45
2022-09-28T06:26:45.079Z,15.45
2022-09-28T06:29:06.115Z,15.59
2022-09-28T06:30:09.857Z,15.47
2022-09-28T06:31:11.989Z,15.42
2022-09-28T06:32:18.918Z,15.45
2022-09-28T06:33:23.771Z,15.49
2022-09-28T06:34:25.633Z,15.51
2022-09-28T06:35:30.020Z,15.46
2022-09-28T06:36:33.227Z,15.49
2022-09-28T06:37:36.039Z,15.47
2022-09-28T06:38:38.151Z,15.46
2022-09-28T06:39:40.221Z,15.45
2022-09-28T06:40:43.638Z,15.44
2022-09-28T06:41:46.495Z,15.44
2022-09-28T06:42:58.152Z,15.42
2022-09-28T06:44:01.874Z,15.32
2022-09-28T06:45:22.970Z,15.37
2022-09-28T06:46:29.368Z,15.44
2022-09-28T06:47:58.287Z,15.53
2022-09-28T06:49:02.760Z,15.60
2022-09-28T06:50:23.331Z,15.64
2022-09-28T06:52:38.039Z,15.89
2022-09-28T06:53:53.956Z,15.78
2022-09-28T06:55:14.359Z,15.88
2022-09-28T06:56:18.113Z,15.92
2022-09-28T06:57:21.067Z,16.00
2022-09-28T06:58:24.674Z,16.07
2022-09-28T06:59:26.399Z,16.12
2022-09-28T07:00:30.919Z,16.12
2022-09-28T07:01:32.846Z,16.10
2022-09-28T07:02:46.756Z,16.08
2022-09-28T07:05:17.607Z,16.33
2022-09-28T07:06:27.575Z,16.24
2022-09-28T07:07:40.679Z,16.28
2022-09-28T07:08:57.108Z,16.33
2022-09-28T07:09:55.533Z,16.36
2022-09-28T07:11:07.122Z,16.31
2022-09-28T07:12:26.033Z,16.36
2022-09-28T07:13:50.301Z,16.40
2022-09-28T07:14:47.822Z,16.42
2022-09-28T07:15:47.167Z,16.39
2022-09-28T07:17:11.917Z,16.48
2022-09-28T07:18:03.307Z,16.37
2022-09-28T07:19:03.893Z,16.37
2022-09-28T07:20:18.440Z,16.42
2022-09-28T07:21:23.611Z,16.44
2022-09-28T07:22:19.405Z,16.38
2022-09-28T07:23:20.886Z,16.34
2022-09-28T07:24:41.600Z,16.16
2022-09-28T07:26:07.893Z,16.15
2022-09-28T07:27:20.232Z,16.08
2022-09-28T07:28:40.606Z,16.00
2022-09-28T07:29:59.593Z,16.02
2022-09-28T07:31:21.592Z,16.02
2022-09-28T07:33:51.844Z,15.99
2022-09-28T07:34:59.096Z,15.97
2022-09-28T07:36:06.875Z,15.97
2022-09-28T07:37:11.683Z,16.00
2022-09-28T07:38:13.628Z,15.98
2022-09-28T07:39:16.116Z,15.98
2022-09-28T07:40:18.461Z,16.02
2022-09-28T07:41:20.691Z,16.07
2022-09-28T07:42:25.799Z,16.04
2022-09-28T07:43:27.674Z,16.07
2022-09-28T07:44:30.074Z,16.11
2022-09-28T07:45:33.258Z,16.16
2022-09-28T07:46:35.442Z,16.23
2022-09-28T07:47:39.409Z,16.19
2022-09-28T07:48:46.150Z,16.22
2022-09-28T07:50:02.186Z,16.29
2022-09-28T07:51:12.477Z,16.37
2022-09-28T07:52:17.979Z,16.38
2022-09-28T07:53:23.704Z,16.41
2022-09-28T07:54:27.678Z,16.40
2022-09-28T07:55:44.695Z,16.34
2022-09-28T07:56:48.471Z,16.32
2022-09-28T07:57:56.276Z,16.33
2022-09-28T07:59:03.134Z,16.18
2022-09-28T08:00:09.166Z,16.09
2022-09-28T08:01:19.837Z,16.03
2022-09-28T08:02:22.528Z,15.99
2022-09-28T08:03:24.560Z,15.90
2022-09-28T08:04:28.187Z,15.86
2022-09-28T08:05:30.956Z,15.84
2022-09-28T08:06:34.232Z,15.74
2022-09-28T08:07:37.388Z,15.78
2022-09-28T08:08:41.616Z,15.86
2022-09-28T08:09:45.916Z,15.87
2022-09-28T08:11:08.762Z,15.91
2022-09-28T08:12:15.480Z,15.80
2022-09-28T08:13:22.252Z,15.79
2022-09-28T08:14:31.741Z,15.74
2022-09-28T08:15:35.641Z,15.68
2022-09-28T08:16:49.563Z,15.57
2022-09-28T08:18:02.764Z,15.62
2022-09-28T08:19:05.041Z,15.65
2022-09-28T08:20:08.231Z,15.64
2022-09-28T08:21:10.581Z,15.55
2022-09-28T08:22:13.962Z,15.54
2022-09-28T08:23:16.114Z,15.26
2022-09-28T08:24:20.388Z,15.26
2022-09-28T08:25:22.781Z,15.32
2022-09-28T08:26:25.562Z,15.40
2022-09-28T08:27:27.615Z,15.28
2022-09-28T08:28:29.396Z,15.25
2022-09-28T08:29:33.227Z,15.31
2022-09-28T08:30:57.485Z,15.41
2022-09-28T08:32:17.486Z,15.46
2022-09-28T08:33:27.756Z,15.55
2022-09-28T08:34:48.052Z,15.71
2022-09-28T08:36:02.663Z,15.65
2022-09-28T08:37:23.882Z,15.70
2022-09-28T08:38:45.304Z,15.74
2022-09-28T08:40:03.556Z,15.84
2022-09-28T08:41:29.674Z,15.96
2022-09-28T08:42:38.153Z,15.96
2022-09-28T08:44:14.815Z,16.03
2022-09-28T08:45:31.273Z,16.09
2022-09-28T08:48:10.173Z,16.47
2022-09-28T08:49:30.895Z,16.45
2022-09-28T08:50:59.352Z,16.66
2022-09-28T08:52:16.721Z,16.81
2022-09-28T08:55:17.012Z,16.77
2022-09-28T08:56:35.667Z,16.93
2022-09-28T08:57:47.273Z,17.16
2022-09-28T08:58:54.334Z,17.13
2022-09-28T09:00:08.187Z,17.09
2022-09-28T09:01:14.062Z,17.20
2022-09-28T09:02:22.634Z,17.33
2022-09-28T09:03:35.199Z,17.43
2022-09-28T09:04:39.099Z,17.38
2022-09-28T09:06:30.290Z,17.38
2022-09-28T09:07:43.449Z,17.45
2022-09-28T09:09:07.402Z,17.55
2022-09-28T09:10:22.313Z,17.66
2022-09-28T09:11:48.226Z,17.71
2022-09-28T09:13:00.873Z,17.69
2022-09-28T09:14:09.618Z,17.51
2022-09-28T09:15:30.817Z,17.38
2022-09-28T09:16:38.397Z,17.16
2022-09-28T09:17:50.285Z,17.01
2022-09-28T09:19:15.451Z,17.07
2022-09-28T09:20:56.484Z,17.05
2022-09-28T09:23:26.666Z,16.96
2022-09-28T09:24:46.197Z,16.73
2022-09-28T09:25:54.590Z,16.63
2022-09-28T09:27:06.268Z,16.67
2022-09-28T09:28:19.323Z,16.69
2022-09-28T09:29:28.702Z,16.68
2022-09-28T09:31:52.544Z,16.96
2022-09-28T09:33:21.278Z,16.82
2022-09-28T09:34:38.053Z,16.75
2022-09-28T09:36:08.556Z,16.90
2022-09-28T09:37:24.788Z,17.06
2022-09-28T09:38:51.028Z,17.02
2022-09-28T09:40:37.651Z,17.12
2022-09-28T09:42:13.768Z,17.21
2022-09-28T09:43:48.066Z,17.40
2022-09-28T09:45:24.365Z,17.58
2022-09-28T09:47:57.271Z,17.66
2022-09-28T09:49:22.512Z,17.63
2022-09-28T09:50:28.162Z,17.59
2022-09-28T09:51:51.544Z,17.76
2022-09-28T09:53:06.242Z,17.87
2022-09-28T09:54:19.261Z,18.06
2022-09-28T09:55:39.561Z,18.18
2022-09-28T09:58:29.252Z,18.34
2022-09-28T09:59:50.259Z,18.25
2022-09-28T10:01:00.560Z,18.30
2022-09-28T10:02:23.567Z,18.32
2022-09-28T10:03:33.563Z,18.36
2022-09-28T10:04:41.483Z,18.39
2022-09-28T10:05:48.866Z,18.40
2022-09-28T10:06:54.523Z,18.42
2022-09-28T10:08:06.128Z,18.45
2022-09-28T10:09:14.597Z,18.43
2022-09-28T10:10:29.616Z,18.43
2022-09-28T10:11:46.844Z,18.43
2022-09-28T10:12:50.483Z,18.45
2022-09-28T10:13:53.460Z,18.43
2022-09-28T10:14:57.250Z,18.42
2022-09-28T10:16:02.251Z,18.38
2022-09-28T10:17:07.529Z,18.35
2022-09-28T10:19:34.217Z,18.38
2022-09-28T10:20:44.412Z,18.22
2022-09-28T10:21:54.637Z,18.19
2022-09-28T10:23:04.112Z,18.10
2022-09-28T10:24:09.795Z,17.99
2022-09-28T10:25:13.771Z,17.94
2022-09-28T10:26:24.671Z,17.83
2022-09-28T10:27:29.885Z,17.79
2022-09-28T10:28:44.222Z,17.73
2022-09-28T10:31:37.024Z,17.67
2022-09-28T10:32:43.776Z,17.56
2022-09-28T10:33:45.861Z,17.46
2022-09-28T10:34:50.903Z,17.43
2022-09-28T10:35:54.665Z,17.40
2022-09-28T10:37:00.950Z,17.42
2022-09-28T10:38:09.131Z,17.44
2022-09-28T10:39:29.660Z,17.44
2022-09-28T10:40:48.916Z,17.37
2022-09-28T10:41:53.868Z,17.39
2022-09-28T10:43:08.043Z,17.50
2022-09-28T10:44:15.572Z,17.52
2022-09-28T10:46:38.214Z,17.71
2022-09-28T10:47:43.828Z,17.57
2022-09-28T10:48:53.015Z,17.52
2022-09-28T10:49:58.487Z,17.45
2022-09-28T10:52:38.299Z,17.58
2022-09-28T10:53:40.995Z,17.45
2022-09-28T10:54:48.876Z,17.48
2022-09-28T10:56:01.856Z,17.50
2022-09-28T10:57:11.495Z,17.49
2022-09-28T10:58:28.478Z,17.51
2022-09-28T10:59:34.699Z,17.54
2022-09-28T11:00:43.972Z,17.58
2022-09-28T11:01:59.107Z,17.66
2022-09-28T11:03:02.452Z,17.68
2022-09-28T11:04:07.364Z,17.71
2022-09-28T11:05:13.167Z,17.72
2022-09-28T11:06:27.374Z,17.75
2022-09-28T11:07:32.230Z,17.76
2022-09-28T11:08:40.855Z,17.72
2022-09-28T11:09:51.174Z,17.70
2022-09-28T11:11:05.737Z,17.62
2022-09-28T11:12:11.316Z,17.42
2022-09-28T11:13:14.904Z,17.37
2022-09-28T11:14:25.441Z,17.24
2022-09-28T11:15:31.288Z,17.01
2022-09-28T11:16:35.393Z,16.89
2022-09-28T11:17:39.321Z,16.91
2022-09-28T11:18:42.336Z,16.93
2022-09-28T11:19:45.830Z,16.87
2022-09-28T11:20:49.054Z,16.83
2022-09-28T11:21:51.878Z,16.87
2022-09-28T11:23:01.973Z,16.88
2022-09-28T11:24:15.529Z,16.93
2022-09-28T11:25:23.860Z,16.98
2022-09-28T11:26:26.323Z,17.13
2022-09-28T11:27:28.639Z,17.40
2022-09-28T11:28:36.248Z,17.40
2022-09-28T11:29:43.612Z,17.52
2022-09-28T11:30:55.803Z,17.66
2022-09-28T11:32:15.552Z,17.62
2022-09-28T11:33:19.763Z,17.59
2022-09-28T11:34:59.067Z,17.67
2022-09-28T11:36:16.046Z,17.82
2022-09-28T11:37:39.099Z,17.93
2022-09-28T11:38:48.656Z,18.01
2022-09-28T11:40:27.935Z,18.07
2022-09-28T11:41:54.862Z,18.16
2022-09-28T11:43:16.939Z,18.24
2022-09-28T11:44:47.542Z,18.29
2022-09-28T11:46:10.081Z,18.33
2022-09-28T11:47:38.870Z,18.36
2022-09-28T11:48:44.642Z,18.41
2022-09-28T11:49:59.365Z,18.22
2022-09-28T11:51:11.454Z,18.23
2022-09-28T11:52:25.730Z,18.23
2022-09-28T11:53:49.286Z,18.23
2022-09-28T11:54:55.517Z,18.18
2022-09-28T11:56:06.558Z,18.07
2022-09-28T11:57:09.384Z,18.04
2022-09-28T11:58:24.096Z,18.02
2022-09-28T11:59:30.233Z,18.02
2022-09-28T12:00:37.230Z,18.04
2022-09-28T12:01:49.334Z,18.06
2022-09-28T12:03:00.576Z,18.09
2022-09-28T12:04:21.536Z,18.11
2022-09-28T12:05:27.264Z,18.08
2022-09-28T12:06:33.470Z,17.86
2022-09-28T12:07:38.960Z,17.73
2022-09-28T12:08:46.420Z,17.59
2022-09-28T12:10:09.084Z,17.52
2022-09-28T12:11:17.571Z,17.42
2022-09-28T12:12:49.289Z,17.30
2022-09-28T12:13:54.811Z,17.25
2022-09-28T12:15:00.387Z,17.32
2022-09-28T12:17:36.289Z,17.39
2022-09-28T12:18:45.037Z,17.39
2022-09-28T12:19:50.634Z,17.32
2022-09-28T12:21:19.302Z,17.23
2022-09-28T12:22:41.373Z,17.17
2022-09-28T12:23:46.041Z,17.06
2022-09-28T12:24:52.203Z,17.01
2022-09-28T12:26:01.825Z,17.02
2022-09-28T12:27:13.026Z,17.05
2022-09-28T12:28:37.950Z,17.01
2022-09-28T12:29:49.889Z,17.04
2022-09-28T12:30:53.933Z,17.14
2022-09-28T12:32:11.095Z,17.22
2022-09-28T12:33:15.164Z,17.31
2022-09-28T12:34:17.214Z,17.44
2022-09-28T12:35:41.988Z,17.54
2022-09-28T12:37:03.083Z,17.53
2022-09-28T12:38:31.744Z,17.48
2022-09-28T12:39:57.739Z,17.51
2022-09-28T12:41:15.137Z,17.63
2022-09-28T12:42:29.696Z,17.71
2022-09-28T12:43:51.047Z,17.67
2022-09-28T12:45:28.747Z,17.72
2022-09-28T12:47:00.702Z,17.84
2022-09-28T12:48:38.448Z,17.99
2022-09-28T12:50:37.561Z,18.17
2022-09-28T12:51:17.571Z,18.31
2022-09-28T12:52:58.081Z,18.44
2022-09-28T12:54:28.337Z,18.55
2022-09-28T12:55:53.989Z,18.59
2022-09-28T12:57:11.660Z,18.40
2022-09-28T12:58:44.748Z,18.34
2022-09-28T12:59:57.485Z,18.26
2022-09-28T13:01:35.047Z,18.11
2022-09-28T13:02:41.174Z,17.92
2022-09-28T13:03:52.957Z,17.84
2022-09-28T13:05:16.870Z,17.70
2022-09-28T13:06:37.913Z,17.55
2022-09-28T13:07:46.664Z,17.39
2022-09-28T13:09:04.721Z,17.40
2022-09-28T13:10:16.217Z,17.27
2022-09-28T13:11:53.481Z,17.27
2022-09-28T13:13:04.867Z,17.27
2022-09-28T13:14:16.504Z,17.39
2022-09-28T13:18:11.866Z,17.30
2022-09-28T13:19:20.571Z,17.37
2022-09-28T13:20:49.415Z,17.24
2022-09-28T13:23:28.965Z,17.39
2022-09-28T13:24:34.478Z,17.48
2022-09-28T13:28:00.758Z,17.62
2022-09-28T13:29:18.228Z,17.62
2022-09-28T13:30:20.814Z,17.57
2022-09-28T13:31:29.253Z,17.49
2022-09-28T13:32:33.732Z,17.34
2022-09-28T13:33:39.076Z,17.33
2022-09-28T13:34:41.448Z,17.25
2022-09-28T13:35:43.569Z,17.18
2022-09-28T13:36:49.082Z,17.23
2022-09-28T13:38:17.240Z,17.31
2022-09-28T13:39:45.074Z,17.31
2022-09-28T13:41:08.863Z,17.38
2022-09-28T13:44:15.064Z,17.50
2022-09-28T13:45:23.387Z,17.43
2022-09-28T13:46:50.402Z,17.45
2022-09-28T13:48:05.351Z,17.49
2022-09-28T13:49:11.961Z,17.52
2022-09-28T13:50:20.937Z,17.41
2022-09-28T13:51:41.393Z,17.35
2022-09-28T13:52:53.244Z,17.34
2022-09-28T13:54:04.836Z,17.23
2022-09-28T13:55:25.548Z,17.05
2022-09-28T13:56:52.382Z,17.02
2022-09-28T13:58:04.035Z,17.08
2022-09-28T13:59:16.353Z,16.99
2022-09-28T14:00:25.060Z,16.99
2022-09-28T14:01:42.829Z,17.07
2022-09-28T14:04:59.769Z,17.36
2022-09-28T14:06:23.620Z,17.20
2022-09-28T14:07:36.881Z,17.18
2022-09-28T14:09:08.838Z,17.25
2022-09-28T14:12:09.189Z,17.24
2022-09-28T14:13:11.950Z,17.02
2022-09-28T14:14:17.859Z,16.99
2022-09-28T14:15:38.793Z,16.92
2022-09-28T14:16:42.114Z,16.81
2022-09-28T14:17:47.738Z,16.66
2022-09-28T14:18:59.185Z,16.59
2022-09-28T14:20:08.690Z,16.63
2022-09-28T14:21:31.822Z,16.71
2022-09-28T14:22:56.018Z,16.80
2022-09-28T14:24:13.864Z,16.72
2022-09-28T14:25:28.196Z,16.79
2022-09-28T14:26:42.922Z,16.93
2022-09-28T14:28:07.177Z,17.08
2022-09-28T14:29:24.926Z,17.12
2022-09-28T14:30:30.833Z,17.24
2022-09-28T14:31:32.964Z,17.52
2022-09-28T14:32:36.626Z,17.59
2022-09-28T14:33:38.594Z,17.59
2022-09-28T14:34:49.449Z,17.61
2022-09-28T14:36:00.982Z,17.55
2022-09-28T14:37:07.679Z,17.40
2022-09-28T14:38:16.386Z,17.31
2022-09-28T14:39:22.243Z,17.37
2022-09-28T14:40:28.485Z,17.27
2022-09-28T14:41:34.348Z,17.10
2022-09-28T14:42:36.971Z,16.89
2022-09-28T14:43:48.394Z,16.74
2022-09-28T14:45:07.231Z,16.52
2022-09-28T14:46:13.931Z,16.55
2022-09-28T14:47:34.997Z,16.64
2022-09-28T14:49:02.771Z,16.53
2022-09-28T14:50:25.270Z,16.47
2022-09-28T14:51:31.603Z,16.44
2022-09-28T14:52:46.585Z,16.29
2022-09-28T14:53:51.579Z,16.31
2022-09-28T14:54:55.029Z,16.19
2022-09-28T14:56:01.080Z,16.27
2022-09-28T14:57:06.679Z,16.26
2022-09-28T14:58:12.346Z,16.25
2022-09-28T14:59:32.269Z,16.15
2022-09-28T15:00:35.381Z,16.08
2022-09-28T15:01:38.430Z,15.99
2022-09-28T15:02:43.952Z,15.93
2022-09-28T15:03:53.806Z,15.87
2022-09-28T15:05:08.785Z,15.79
2022-09-28T15:06:15.629Z,15.80
2022-09-28T15:07:29.957Z,15.79
2022-09-28T15:08:39.195Z,15.85
2022-09-28T15:09:41.440Z,15.90
2022-09-28T15:10:49.216Z,15.80
2022-09-28T15:11:51.054Z,15.83
2022-09-28T15:12:53.539Z,15.84
2022-09-28T15:14:06.390Z,15.87
2022-09-28T15:15:17.955Z,15.94
2022-09-28T15:16:22.880Z,15.84
2022-09-28T15:17:28.488Z,15.84
2022-09-28T15:18:50.357Z,15.76
2022-09-28T15:20:25.242Z,15.69
2022-09-28T15:21:36.433Z,15.72
2022-09-28T15:22:42.502Z,15.77
2022-09-28T15:23:45.192Z,15.87
2022-09-28T15:25:02.002Z,15.89
2022-09-28T15:26:01.841Z,15.90
2022-09-28T15:27:16.186Z,15.92
2022-09-28T15:28:20.777Z,15.89
2022-09-28T15:29:23.730Z,15.86